createdAt,value
2018-01-30T00:00:06.895Z,74.69
2018-01-30T00:02:33.381Z,74.83
2018-01-30T00:04:59.941Z,75.10
2018-01-30T00:07:26.541Z,75.36
2018-01-30T00:09:53.201Z,75.36
2018-01-30T00:12:19.793Z,75.71
2018-01-30T00:14:46.382Z,76.36
2018-01-30T00:17:12.957Z,76.45
2018-01-30T00:19:39.526Z,76.56
2018-01-30T00:22:06.119Z,76.45
2018-01-30T00:24:32.722Z,76.70
2018-01-30T00:26:59.309Z,76.77
2018-01-30T00:29:25.846Z,76.62
2018-01-30T00:31:52.409Z,76.37
2018-01-30T00:34:19.033Z,76.38
2018-01-30T00:36:46.375Z,76.43
2018-01-30T00:39:12.935Z,76.37
2018-01-30T00:41:39.508Z,76.61
2018-01-30T00:44:06.099Z,76.53
2018-01-30T00:46:32.706Z,76.46
2018-01-30T00:48:59.398Z,76.50
2018-01-30T00:51:25.994Z,76.05
2018-01-30T00:53:52.568Z,76.42
2018-01-30T00:56:19.154Z,76.34
2018-01-30T00:58:45.783Z,76.42
2018-01-30T01:01:12.347Z,76.52
2018-01-30T01:03:39.710Z,76.44
2018-01-30T01:06:06.340Z,76.29
2018-01-30T01:08:33.655Z,76.41
2018-01-30T01:11:00.245Z,76.48
2018-01-30T01:13:26.807Z,76.71
2018-01-30T01:15:53.356Z,76.38
2018-01-30T01:18:19.930Z,76.57
2018-01-30T01:20:46.548Z,76.66
2018-01-30T01:23:13.126Z,76.57
2018-01-30T01:25:39.710Z,76.34
2018-01-30T01:28:06.302Z,76.74
2018-01-30T01:30:32.886Z,76.74
2018-01-30T01:32:59.478Z,76.88
2018-01-30T01:35:26.033Z,76.76
2018-01-30T01:37:52.626Z,76.67
2018-01-30T01:40:19.961Z,77.04
2018-01-30T01:42:46.521Z,77.44
2018-01-30T01:45:13.150Z,77.43
2018-01-30T01:47:39.745Z,77.36
2018-01-30T01:50:06.461Z,77.40
2018-01-30T01:52:33.049Z,77.72
2018-01-30T01:54:59.633Z,77.81
2018-01-30T01:57:26.207Z,77.86
2018-01-30T01:59:53.554Z,77.88
2018-01-30T02:02:20.145Z,77.46
2018-01-30T02:04:46.725Z,77.35
2018-01-30T02:07:13.322Z,77.38
2018-01-30T02:09:39.905Z,77.52
2018-01-30T02:12:06.524Z,77.74
2018-01-30T02:14:33.113Z,77.57
2018-01-30T02:17:00.450Z,77.84
2018-01-30T02:19:27.235Z,77.95
2018-01-30T02:21:53.882Z,78.20
2018-01-30T02:24:20.531Z,77.99
2018-01-30T02:26:47.111Z,77.95
2018-01-30T02:29:13.689Z,77.71
2018-01-30T02:31:40.285Z,77.89
2018-01-30T02:34:06.979Z,78.07
2018-01-30T02:36:33.573Z,78.19
2018-01-30T02:39:00.189Z,78.33
2018-01-30T02:41:27.567Z,78.53
2018-01-30T02:43:54.866Z,78.34
2018-01-30T02:46:21.496Z,78.83
2018-01-30T02:48:48.063Z,78.90
2018-01-30T02:51:14.638Z,78.65
2018-01-30T02:53:41.222Z,78.54
2018-01-30T02:56:07.830Z,78.55
2018-01-30T02:58:34.409Z,78.30
2018-01-30T03:01:01.081Z,78.48
2018-01-30T03:03:27.706Z,78.69
2018-01-30T03:05:54.350Z,78.17
2018-01-30T03:08:21.664Z,78.35
2018-01-30T03:10:48.242Z,78.56
2018-01-30T03:13:14.910Z,78.81
2018-01-30T03:15:41.478Z,78.48
2018-01-30T03:18:08.053Z,78.37
2018-01-30T03:20:35.386Z,77.47
2018-01-30T03:23:02.097Z,78.15
2018-01-30T03:25:28.732Z,78.28
2018-01-30T03:27:55.343Z,78.23
2018-01-30T03:30:21.904Z,78.33
2018-01-30T03:32:48.498Z,77.99
2018-01-30T03:35:15.085Z,78.00
2018-01-30T03:37:41.642Z,77.99
2018-01-30T03:40:08.258Z,77.98
2018-01-30T03:42:34.854Z,78.07
2018-01-30T03:45:01.434Z,78.23
2018-01-30T03:47:28.014Z,78.23
2018-01-30T03:49:54.693Z,78.27
2018-01-30T03:52:21.301Z,78.11
2018-01-30T03:54:47.866Z,78.00
2018-01-30T03:57:14.450Z,78.17
2018-01-30T03:59:41.004Z,77.96
2018-01-30T04:02:07.599Z,77.98
2018-01-30T04:04:34.162Z,78.00
2018-01-30T04:07:01.534Z,78.05
2018-01-30T04:09:28.262Z,78.06
2018-01-30T04:11:54.877Z,78.01
2018-01-30T04:14:21.487Z,77.99
2018-01-30T04:16:48.070Z,77.94
2018-01-30T04:19:15.366Z,78.02
2018-01-30T04:21:41.965Z,77.67
2018-01-30T04:24:09.281Z,77.59
2018-01-30T04:26:35.871Z,77.56
2018-01-30T04:29:02.449Z,77.60
2018-01-30T04:31:29.041Z,77.52
2018-01-30T04:33:55.994Z,77.66
2018-01-30T04:36:22.634Z,77.34
2018-01-30T04:38:49.231Z,77.48
2018-01-30T04:41:16.602Z,77.65
2018-01-30T04:43:43.226Z,77.78
2018-01-30T04:46:09.879Z,78.18
2018-01-30T04:48:36.438Z,78.42
2018-01-30T04:51:03.054Z,78.77
2018-01-30T04:53:30.350Z,79.05
2018-01-30T04:55:57.218Z,79.19
2018-01-30T04:58:23.770Z,79.12
2018-01-30T05:00:50.381Z,78.86
2018-01-30T05:03:17.014Z,79.10
2018-01-30T05:05:43.586Z,78.65
2018-01-30T05:08:10.959Z,78.69
2018-01-30T05:10:37.547Z,78.67
2018-01-30T05:13:04.121Z,78.59
2018-01-30T05:15:31.448Z,78.68
2018-01-30T05:17:58.042Z,78.75
2018-01-30T05:20:24.792Z,78.73
2018-01-30T05:22:51.331Z,78.82
2018-01-30T05:25:17.950Z,78.86
2018-01-30T05:27:44.534Z,79.18
2018-01-30T05:30:11.130Z,79.31
2018-01-30T05:32:37.701Z,79.05
2018-01-30T05:35:04.382Z,79.11
2018-01-30T05:37:30.930Z,79.20
2018-01-30T05:39:58.330Z,78.85
2018-01-30T05:42:25.926Z,79.08
2018-01-30T05:44:52.620Z,79.09
2018-01-30T05:47:19.298Z,78.61
2018-01-30T05:49:45.886Z,78.45
2018-01-30T05:52:12.495Z,78.78
2018-01-30T05:54:39.162Z,78.98
2018-01-30T05:57:06.694Z,79.18
2018-01-30T05:59:34.298Z,78.86
2018-01-30T06:02:01.705Z,78.95
2018-01-30T06:04:28.287Z,79.10
2018-01-30T06:06:55.164Z,79.18
2018-01-30T06:09:21.750Z,79.27
2018-01-30T06:11:48.323Z,79.52
2018-01-30T06:14:15.687Z,79.51
2018-01-30T06:16:42.998Z,79.67
2018-01-30T06:19:09.628Z,79.82
2018-01-30T06:21:36.205Z,78.98
2018-01-30T06:24:03.564Z,79.02
2018-01-30T06:26:30.882Z,79.45
2018-01-30T06:28:57.547Z,79.59
2018-01-30T06:31:24.957Z,79.23
2018-01-30T06:33:51.531Z,79.14
2018-01-30T06:36:18.146Z,79.35
2018-01-30T06:38:44.714Z,79.42
2018-01-30T06:41:12.177Z,79.50
2018-01-30T06:43:38.758Z,79.79
2018-01-30T06:46:05.328Z,79.54
2018-01-30T06:48:31.942Z,79.89
2018-01-30T06:50:58.606Z,80.02
2018-01-30T06:53:25.239Z,80.62
2018-01-30T06:55:51.891Z,81.31
2018-01-30T06:58:18.501Z,81.71
2018-01-30T07:00:45.198Z,81.38
2018-01-30T07:03:11.795Z,81.75
2018-01-30T07:05:38.427Z,81.50
2018-01-30T07:08:05.158Z,81.48
2018-01-30T07:10:31.753Z,81.38
2018-01-30T07:12:58.455Z,81.74
2018-01-30T07:15:25.868Z,82.34
2018-01-30T07:17:52.436Z,82.75
2018-01-30T07:20:19.037Z,82.60
2018-01-30T07:22:45.641Z,82.48
2018-01-30T07:25:12.278Z,82.37
2018-01-30T07:27:39.054Z,82.61
2018-01-30T07:30:06.674Z,82.95
2018-01-30T07:32:33.281Z,83.14
2018-01-30T07:34:59.886Z,83.14
2018-01-30T07:37:26.474Z,82.77
2018-01-30T07:39:53.814Z,82.83
2018-01-30T07:42:20.628Z,82.85
2018-01-30T07:44:48.123Z,83.13
2018-01-30T07:47:14.860Z,83.08
2018-01-30T07:49:42.193Z,83.14
2018-01-30T07:52:08.763Z,83.30
2018-01-30T07:54:35.431Z,83.35
2018-01-30T07:57:02.101Z,83.43
2018-01-30T07:59:28.776Z,83.49
2018-01-30T08:01:55.369Z,83.64
2018-01-30T08:04:22.173Z,83.23
2018-01-30T08:06:48.795Z,82.91
2018-01-30T08:09:16.143Z,82.07
2018-01-30T08:11:42.812Z,82.34
2018-01-30T08:14:09.421Z,82.33
2018-01-30T08:16:36.074Z,82.59
2018-01-30T08:19:02.702Z,82.41
2018-01-30T08:21:29.295Z,82.67
2018-01-30T08:23:57.213Z,82.84
2018-01-30T08:26:23.854Z,82.84
2018-01-30T08:28:50.513Z,82.98
2018-01-30T08:31:17.119Z,82.84
2018-01-30T08:33:43.757Z,82.60
2018-01-30T08:36:10.354Z,82.51
2018-01-30T08:38:36.943Z,82.19
2018-01-30T08:41:03.582Z,82.28
2018-01-30T08:43:30.190Z,82.19
2018-01-30T08:45:56.824Z,82.00
2018-01-30T08:48:23.466Z,82.08
2018-01-30T08:50:50.105Z,81.80
2018-01-30T08:53:16.706Z,81.90
2018-01-30T08:55:44.090Z,81.97
2018-01-30T08:58:10.669Z,82.06
2018-01-30T09:00:37.412Z,82.30
2018-01-30T09:03:03.982Z,82.29
2018-01-30T09:05:30.638Z,82.37
2018-01-30T09:07:57.270Z,82.52
2018-01-30T09:10:23.857Z,82.54
2018-01-30T09:12:50.463Z,82.74
2018-01-30T09:15:17.051Z,82.74
2018-01-30T09:17:43.753Z,82.79
2018-01-30T09:20:10.366Z,82.56
2018-01-30T09:22:36.944Z,82.36
2018-01-30T09:25:03.586Z,81.48
2018-01-30T09:27:30.216Z,80.03
2018-01-30T09:29:56.877Z,75.61
2018-01-30T09:32:23.493Z,72.07
2018-01-30T09:34:50.200Z,70.85
2018-01-30T09:37:17.526Z,71.73
2018-01-30T09:39:44.873Z,73.31
2018-01-30T09:42:11.557Z,74.68
2018-01-30T09:44:38.174Z,75.34
2018-01-30T09:47:05.468Z,75.73
2018-01-30T09:49:32.107Z,76.18
2018-01-30T09:51:58.693Z,77.38
2018-01-30T09:54:25.326Z,76.66
2018-01-30T09:56:51.977Z,76.88
2018-01-30T09:59:18.589Z,76.85
2018-01-30T10:01:45.185Z,76.86
2018-01-30T10:04:11.833Z,75.87
2018-01-30T10:06:38.451Z,75.48
2018-01-30T10:09:05.072Z,76.40
2018-01-30T10:11:31.667Z,76.71
2018-01-30T10:13:58.307Z,77.51
2018-01-30T10:16:24.922Z,77.40
2018-01-30T10:18:51.497Z,76.21
2018-01-30T10:21:18.167Z,75.64
2018-01-30T10:23:44.718Z,74.98
2018-01-30T10:26:11.334Z,74.32
2018-01-30T10:28:38.650Z,74.34
2018-01-30T10:31:05.222Z,73.76
2018-01-30T10:33:31.839Z,72.87
2018-01-30T10:35:58.412Z,67.74
2018-01-30T10:38:25.110Z,60.44
2018-01-30T10:40:51.755Z,59.05
2018-01-30T10:43:18.325Z,59.03
2018-01-30T10:45:44.957Z,58.36
2018-01-30T10:48:11.582Z,54.57
2018-01-30T10:50:38.188Z,54.11
2018-01-30T10:53:04.833Z,54.08
2018-01-30T10:55:31.427Z,54.94
2018-01-30T10:57:58.077Z,53.52
2018-01-30T11:00:24.758Z,54.86
2018-01-30T11:02:52.107Z,54.97
2018-01-30T11:05:18.729Z,55.45
2018-01-30T11:07:45.330Z,57.35
2018-01-30T11:10:12.038Z,57.58
2018-01-30T11:12:39.470Z,59.02
2018-01-30T11:15:06.092Z,59.79
2018-01-30T11:17:32.714Z,60.93
2018-01-30T11:19:59.374Z,61.18
2018-01-30T11:22:25.966Z,60.11
2018-01-30T11:24:52.589Z,59.62
2018-01-30T11:27:19.245Z,59.52
2018-01-30T11:29:45.856Z,56.77
2018-01-30T11:32:12.466Z,54.93
2018-01-30T11:34:39.074Z,48.36
2018-01-30T11:37:05.663Z,43.46
2018-01-30T11:39:32.282Z,44.38
2018-01-30T11:41:59.642Z,45.11
2018-01-30T11:44:26.274Z,48.41
2018-01-30T11:46:52.925Z,47.83
2018-01-30T11:49:20.258Z,48.01
2018-01-30T11:51:46.850Z,50.40
2018-01-30T11:54:13.523Z,52.60
2018-01-30T11:56:40.134Z,55.21
2018-01-30T11:59:06.718Z,57.75
2018-01-30T12:01:33.379Z,59.18
2018-01-30T12:03:59.998Z,60.63
2018-01-30T12:06:27.354Z,60.99
2018-01-30T12:08:54.015Z,60.74
2018-01-30T12:11:20.611Z,61.06
2018-01-30T12:13:47.218Z,61.07
2018-01-30T12:16:13.904Z,61.79
2018-01-30T12:18:40.563Z,62.87
2018-01-30T12:21:07.142Z,63.36
2018-01-30T12:23:33.734Z,64.17
2018-01-30T12:26:00.338Z,64.82
2018-01-30T12:28:27.637Z,65.08
2018-01-30T12:30:54.314Z,65.08
2018-01-30T12:33:21.853Z,64.69
2018-01-30T12:35:48.473Z,64.42
2018-01-30T12:38:15.039Z,65.02
2018-01-30T12:40:41.640Z,65.17
2018-01-30T12:43:08.258Z,65.02
2018-01-30T12:45:35.571Z,64.71
2018-01-30T12:48:02.206Z,64.93
2018-01-30T12:50:28.786Z,63.51
2018-01-30T12:52:56.194Z,64.39
2018-01-30T12:55:22.815Z,64.85
2018-01-30T12:57:49.426Z,64.63
2018-01-30T13:00:16.082Z,64.53
2018-01-30T13:02:42.690Z,64.72
2018-01-30T13:05:09.411Z,64.39
2018-01-30T13:07:36.018Z,64.53
2018-01-30T13:10:02.706Z,63.98
2018-01-30T13:12:29.359Z,63.94
2018-01-30T13:14:55.960Z,63.33
2018-01-30T13:17:22.609Z,62.79
2018-01-30T13:19:50.591Z,63.01
2018-01-30T13:22:17.215Z,62.01
2018-01-30T13:24:44.961Z,62.06
2018-01-30T13:27:11.556Z,62.81
2018-01-30T13:29:38.225Z,61.55
2018-01-30T13:32:05.119Z,61.36
2018-01-30T13:34:31.736Z,60.25
2018-01-30T13:36:58.319Z,60.52
2018-01-30T13:39:25.076Z,60.56
2018-01-30T13:41:51.662Z,58.92
2018-01-30T13:44:18.275Z,57.39
2018-01-30T13:46:44.953Z,58.35
2018-01-30T13:49:11.536Z,57.64
2018-01-30T13:51:38.242Z,57.42
2018-01-30T13:54:06.868Z,57.11
2018-01-30T13:56:34.194Z,58.01
2018-01-30T13:59:01.262Z,57.99
2018-01-30T14:01:27.848Z,57.49
2018-01-30T14:03:54.443Z,57.66
2018-01-30T14:06:21.099Z,56.99
2018-01-30T14:08:48.702Z,57.01
2018-01-30T14:11:15.318Z,57.13
2018-01-30T14:13:41.892Z,57.51
2018-01-30T14:16:08.497Z,58.51
2018-01-30T14:18:35.162Z,58.19
2018-01-30T14:21:01.747Z,58.72
2018-01-30T14:23:29.131Z,59.33
2018-01-30T14:25:55.752Z,57.33
2018-01-30T14:28:22.474Z,57.81
2018-01-30T14:30:49.814Z,58.24
2018-01-30T14:33:16.530Z,58.03
2018-01-30T14:35:43.104Z,58.50
2018-01-30T14:38:10.470Z,58.32
2018-01-30T14:40:37.170Z,58.09
2018-01-30T14:43:03.778Z,57.81
2018-01-30T14:45:30.374Z,56.73
2018-01-30T14:47:57.002Z,55.77
2018-01-30T14:50:24.351Z,55.96
2018-01-30T14:52:51.000Z,57.38
2018-01-30T14:55:17.609Z,56.25
2018-01-30T14:57:44.229Z,56.36
2018-01-30T15:00:10.904Z,55.12
2018-01-30T15:02:37.552Z,55.19
2018-01-30T15:05:04.925Z,55.62
2018-01-30T15:07:31.585Z,55.24
2018-01-30T15:09:58.312Z,54.81
2018-01-30T15:12:24.903Z,54.75
2018-01-30T15:14:51.584Z,54.41
2018-01-30T15:17:18.192Z,54.88
2018-01-30T15:19:45.510Z,55.17
2018-01-30T15:22:12.150Z,55.56
2018-01-30T15:24:38.747Z,55.61
2018-01-30T15:27:05.354Z,56.88
2018-01-30T15:29:32.741Z,57.82
2018-01-30T15:31:59.313Z,57.87
2018-01-30T15:34:26.010Z,58.84
2018-01-30T15:36:52.665Z,59.89
2018-01-30T15:39:19.255Z,59.96
2018-01-30T15:41:46.602Z,60.59
2018-01-30T15:44:13.234Z,60.67
2018-01-30T15:46:40.608Z,60.63
2018-01-30T15:49:07.344Z,61.00
2018-01-30T15:51:34.715Z,60.61
2018-01-30T15:54:01.343Z,61.33
2018-01-30T15:56:28.681Z,61.36
2018-01-30T15:58:55.294Z,61.61
2018-01-30T16:01:21.910Z,61.65
2018-01-30T16:03:48.534Z,61.88
2018-01-30T16:06:15.146Z,62.01
2018-01-30T16:08:42.528Z,62.96
2018-01-30T16:11:09.132Z,62.85
2018-01-30T16:13:36.518Z,63.18
2018-01-30T16:16:03.183Z,63.40
2018-01-30T16:18:29.791Z,63.40
2018-01-30T16:20:56.459Z,63.49
2018-01-30T16:23:23.096Z,63.29
2018-01-30T16:25:49.770Z,63.00
2018-01-30T16:28:16.357Z,63.61
2018-01-30T16:30:43.023Z,63.90
2018-01-30T16:33:09.657Z,64.16
2018-01-30T16:35:36.296Z,64.70
2018-01-30T16:38:02.919Z,64.93
2018-01-30T16:40:29.519Z,64.97
2018-01-30T16:42:56.090Z,64.50
2018-01-30T16:45:22.722Z,65.42
2018-01-30T16:47:49.341Z,65.82
2018-01-30T16:50:15.962Z,65.70
2018-01-30T16:52:42.653Z,65.56
2018-01-30T16:55:09.322Z,65.99
2018-01-30T16:57:35.944Z,65.76
2018-01-30T17:00:02.678Z,65.97
2018-01-30T17:02:29.332Z,66.27
2018-01-30T17:04:55.927Z,66.04
2018-01-30T17:07:22.575Z,65.92
2018-01-30T17:09:49.237Z,66.63
2018-01-30T17:12:16.639Z,66.99
2018-01-30T17:14:43.290Z,66.50
2018-01-30T17:17:09.979Z,66.57
2018-01-30T17:19:36.601Z,66.86
2018-01-30T17:22:03.288Z,67.28
2018-01-30T17:24:29.894Z,67.12
2018-01-30T17:26:56.521Z,67.20
2018-01-30T17:29:23.911Z,67.21
2018-01-30T17:31:50.553Z,67.60
2018-01-30T17:34:17.183Z,67.52
2018-01-30T17:36:43.806Z,67.53
2018-01-30T17:39:11.167Z,66.77
2018-01-30T17:41:37.751Z,67.01
2018-01-30T17:44:04.383Z,67.81
2018-01-30T17:46:30.987Z,67.35
2018-01-30T17:48:57.598Z,67.63
2018-01-30T17:51:24.986Z,67.74
2018-01-30T17:53:51.642Z,67.49
2018-01-30T17:56:18.265Z,67.86
2018-01-30T17:58:44.903Z,67.73
2018-01-30T18:01:11.717Z,67.85
2018-01-30T18:03:39.142Z,67.72
2018-01-30T18:06:05.792Z,67.41
2018-01-30T18:08:33.266Z,67.74
2018-01-30T18:10:59.924Z,68.02
2018-01-30T18:13:26.616Z,67.83
2018-01-30T18:15:53.217Z,67.57
2018-01-30T18:18:19.836Z,67.54
2018-01-30T18:20:46.481Z,67.38
2018-01-30T18:23:13.122Z,66.72
2018-01-30T18:25:39.796Z,66.67
2018-01-30T18:28:06.434Z,66.40
2018-01-30T18:30:33.855Z,65.78
2018-01-30T18:33:00.523Z,65.72
2018-01-30T18:35:27.192Z,65.57
2018-01-30T18:37:54.563Z,64.65
2018-01-30T18:40:21.949Z,63.78
2018-01-30T18:42:48.658Z,63.48
2018-01-30T18:45:15.284Z,63.12
2018-01-30T18:47:42.723Z,62.49
2018-01-30T18:50:09.316Z,62.71
2018-01-30T18:52:35.978Z,62.40
2018-01-30T18:55:03.390Z,62.79
2018-01-30T18:57:29.990Z,62.42
2018-01-30T18:59:56.680Z,62.24
2018-01-30T19:02:23.371Z,62.00
2018-01-30T19:04:50.022Z,62.48
2018-01-30T19:07:16.676Z,62.80
2018-01-30T19:09:43.304Z,62.65
2018-01-30T19:12:10.706Z,62.25
2018-01-30T19:14:38.082Z,62.24
2018-01-30T19:17:04.766Z,61.83
2018-01-30T19:19:31.378Z,60.71
2018-01-30T19:21:58.020Z,60.87
2018-01-30T19:24:24.653Z,61.08
2018-01-30T19:26:51.290Z,61.04
2018-01-30T19:29:17.881Z,61.14
2018-01-30T19:31:44.503Z,61.27
2018-01-30T19:34:11.187Z,61.31
2018-01-30T19:36:37.806Z,61.64
2018-01-30T19:39:04.464Z,61.87
2018-01-30T19:41:31.074Z,60.98
2018-01-30T19:43:57.742Z,60.99
2018-01-30T19:46:25.102Z,61.20
2018-01-30T19:48:51.770Z,61.49
2018-01-30T19:51:18.411Z,61.62
2018-01-30T19:53:45.394Z,62.27
2018-01-30T19:56:12.075Z,62.17
2018-01-30T19:58:39.432Z,61.97
2018-01-30T20:01:06.095Z,61.75
2018-01-30T20:03:32.768Z,61.32
2018-01-30T20:05:59.453Z,61.98
2018-01-30T20:08:26.079Z,61.86
2018-01-30T20:10:52.747Z,62.02
2018-01-30T20:13:19.435Z,61.63
2018-01-30T20:15:46.079Z,61.69
2018-01-30T20:18:12.726Z,61.92
2018-01-30T20:20:39.342Z,61.68
2018-01-30T20:23:05.950Z,61.85
2018-01-30T20:25:32.609Z,61.69
2018-01-30T20:27:59.200Z,61.90
2018-01-30T20:30:25.850Z,62.37
2018-01-30T20:32:52.422Z,62.47
2018-01-30T20:35:19.087Z,62.27
2018-01-30T20:37:46.475Z,60.78
2018-01-30T20:40:13.114Z,60.61
2018-01-30T20:42:39.723Z,59.97
2018-01-30T20:45:06.350Z,60.04
2018-01-30T20:47:33.771Z,59.94
2018-01-30T20:50:00.434Z,61.12
2018-01-30T20:52:27.126Z,61.26
2018-01-30T20:54:53.821Z,60.97
2018-01-30T20:57:20.446Z,61.92
2018-01-30T20:59:47.051Z,62.46
2018-01-30T21:02:13.718Z,62.99
2018-01-30T21:04:40.418Z,63.23
2018-01-30T21:07:07.051Z,63.04
2018-01-30T21:09:33.699Z,63.39
2018-01-30T21:12:00.353Z,63.54
2018-01-30T21:14:26.999Z,63.62
2018-01-30T21:16:53.610Z,63.56
2018-01-30T21:19:20.218Z,63.39
2018-01-30T21:21:46.926Z,62.94
2018-01-30T21:24:13.560Z,63.00
2018-01-30T21:26:40.157Z,62.80
2018-01-30T21:29:06.782Z,63.44
2018-01-30T21:31:33.520Z,63.25
2018-01-30T21:34:00.159Z,63.00
2018-01-30T21:36:26.774Z,63.11
2018-01-30T21:38:54.115Z,62.99
2018-01-30T21:41:20.780Z,62.94
2018-01-30T21:43:47.437Z,62.05
2018-01-30T21:46:14.058Z,62.12
2018-01-30T21:48:40.678Z,61.80
2018-01-30T21:51:08.057Z,62.22
2018-01-30T21:53:34.663Z,62.62
2018-01-30T21:56:01.251Z,62.38
2018-01-30T21:58:27.861Z,62.29
2018-01-30T22:00:55.264Z,61.68
2018-01-30T22:03:21.977Z,59.95
2018-01-30T22:05:48.614Z,60.19
2018-01-30T22:08:15.229Z,60.16
2018-01-30T22:10:41.945Z,59.92
2018-01-30T22:13:09.343Z,59.36
2018-01-30T22:15:35.889Z,58.58
2018-01-30T22:18:02.518Z,58.58
2018-01-30T22:20:29.093Z,58.55
2018-01-30T22:22:56.535Z,58.69
2018-01-30T22:25:23.914Z,59.96
2018-01-30T22:27:51.271Z,60.32
2018-01-30T22:30:17.894Z,60.16
2018-01-30T22:32:44.489Z,60.61
2018-01-30T22:35:11.145Z,60.98
2018-01-30T22:37:37.780Z,61.54
2018-01-30T22:40:04.410Z,61.46
2018-01-30T22:42:31.027Z,61.79
2018-01-30T22:44:57.675Z,62.19
